Time;durP1;ratioP1;P1;durP2;ratioP2;P2;SDS_P1;SDS_P2;PMS_P1;PMS_P2;Temp;Humidity;BMP_temperature;BMP_pressure;BME280_temperature;BME280_humidity;BME280_pressure;Samples;Min_cycle;Max_cycle;Signal;HPM_P1;HPM_P2
2022/05/05 00:02:17;;;;;;;;;;;;;;;17.84;49.21;100682.88;4959737;28;128981;-68
2022/05/05 00:04:43;;;;;;;;;;;;;;;17.85;49.35;100689.13;4962651;28;98463;-66
2022/05/05 00:07:09;;;;;;;;;;;;;;;17.83;49.42;100694.06;4962034;28;127761;-67
2022/05/05 00:09:36;;;;;;;;;;;;;;;17.82;49.25;100687.00;4962051;28;117638;-68
2022/05/05 00:14:46;;;;;;;;;;;;;;;17.80;49.40;100694.66;4962523;28;98171;-67
2022/05/05 00:17:13;;;;;;;;;;;;;;;17.79;49.41;100703.97;4961261;28;127561;-67
2022/05/05 00:19:43;;;;;;;;;;;;;;;17.77;49.33;100704.28;4959277;28;119449;-67
2022/05/05 00:22:09;;;;;;;;;;;;;;;17.76;49.37;100710.84;4956443;28;99174;-67
2022/05/05 00:24:37;;;;;;;;;;;;;;;17.75;49.46;100705.72;4956897;28;98985;-68
2022/05/05 00:27:03;;;;;;;;;;;;;;;17.74;49.44;100717.72;4942771;28;98367;-67
2022/05/05 00:29:29;;;;;;;;;;;;;;;17.73;49.49;100714.19;4942118;28;105497;-66
2022/05/05 00:31:55;;;;;;;;;;;;;;;17.73;49.49;100716.09;4945334;28;128559;-68
2022/05/05 00:34:21;;;;;;;;;;;;;;;17.72;49.65;100726.16;4959679;28;111713;-68
2022/05/05 00:36:47;;;;;;;;;;;;;;;17.72;49.59;100725.38;4962057;28;100671;-68
2022/05/05 00:39:13;;;;;;;;;;;;;;;17.70;49.50;100720.25;4983907;27;98057;-67
2022/05/05 00:41:42;;;;;;;;;;;;;;;17.71;49.57;100729.22;5001095;27;98115;-68
2022/05/05 00:44:08;;;;;;;;;;;;;;;17.70;49.68;100730.34;4981884;27;98203;-67
2022/05/05 00:46:34;;;;;;;;;;;;;;;17.69;49.74;100724.09;4980704;28;99401;-69
2022/05/05 00:49:01;;;;;;;;;;;;;;;17.67;49.62;100731.75;4980024;27;116675;-68
2022/05/05 00:51:27;;;;;;;;;;;;;;;17.68;49.77;100730.63;4979172;28;115758;-67
2022/05/05 00:53:54;;;;;;;;;;;;;;;17.67;49.92;100729.81;5000470;27;123182;-66
2022/05/05 00:56:20;;;;;;;;;;;;;;;17.67;49.96;100724.38;4999898;27;97965;-67
2022/05/05 00:58:46;;;;;;;;;;;;;;;17.66;49.89;100720.06;5001910;27;115892;-67
2022/05/05 01:01:14;;;;;;;;;;;;;;;17.66;50.03;100720.06;4998092;27;128072;-68
2022/05/05 01:03:40;;;;;;;;;;;;;;;17.65;49.92;100723.09;4997640;27;122154;-67
2022/05/05 01:06:06;;;;;;;;;;;;;;;17.65;50.20;100721.16;4988895;27;98866;-67
2022/05/05 01:08:35;;;;;;;;;;;;;;;17.64;50.20;100725.03;4980417;27;119066;-67
2022/05/05 01:11:01;;;;;;;;;;;;;;;17.63;50.16;100720.66;4980280;27;127060;-67
2022/05/05 01:13:27;;;;;;;;;;;;;;;17.63;50.14;100728.84;4995020;27;126311;-67
2022/05/05 01:15:53;;;;;;;;;;;;;;;17.63;50.29;100730.75;4982889;27;98123;-67
2022/05/05 01:18:19;;;;;;;;;;;;;;;17.62;50.44;100727.22;5000362;27;97709;-67
2022/05/05 01:20:54;;;;;;;;;;;;;;;17.61;50.25;100728.34;4982614;27;107867;-67
2022/05/05 01:23:21;;;;;;;;;;;;;;;17.60;50.36;100731.38;4988268;27;98513;-68
2022/05/05 01:28:33;;;;;;;;;;;;;;;17.59;50.54;100732.50;4978191;28;98006;-67
2022/05/05 01:30:59;;;;;;;;;;;;;;;17.59;50.43;100733.28;4980904;28;98563;-67
2022/05/05 01:33:26;;;;;;;;;;;;;;;17.59;50.77;100727.84;4994840;27;98981;-68
2022/05/05 01:35:53;;;;;;;;;;;;;;;17.58;50.60;100734.41;5000984;27;97835;-67
2022/05/05 01:38:23;;;;;;;;;;;;;;;17.58;50.74;100734.41;4998859;27;98404;-67
2022/05/05 01:40:49;;;;;;;;;;;;;;;17.57;50.73;100740.19;5000889;27;112971;-67
2022/05/05 01:43:19;;;;;;;;;;;;;;;17.58;50.78;100741.78;4992641;27;98915;-67
2022/05/05 01:45:45;;;;;;;;;;;;;;;17.57;50.69;100737.47;4980984;27;98164;-67
2022/05/05 01:48:13;;;;;;;;;;;;;;;17.56;50.90;100733.91;4981086;28;97976;-67
2022/05/05 01:50:39;;;;;;;;;;;;;;;17.55;50.97;100724.13;4979020;27;98817;-67
2022/05/05 01:53:05;;;;;;;;;;;;;;;17.54;50.92;100727.97;4989842;27;125103;-67
2022/05/05 01:55:32;;;;;;;;;;;;;;;17.54;50.97;100727.16;5000453;27;98572;-67
2022/05/05 01:57:58;;;;;;;;;;;;;;;17.54;51.13;100730.69;5000284;27;97808;-67
2022/05/05 02:00:24;;;;;;;;;;;;;;;17.53;51.25;100729.09;5000349;27;126663;-67
2022/05/05 02:02:50;;;;;;;;;;;;;;;17.53;51.23;100729.09;4999375;27;127037;-67
2022/05/05 02:05:16;;;;;;;;;;;;;;;17.53;51.25;100731.00;4999647;27;117556;-67
2022/05/05 02:07:43;;;;;;;;;;;;;;;17.52;51.21;100721.19;5000734;27;97914;-67
2022/05/05 02:10:10;;;;;;;;;;;;;;;17.51;51.38;100725.84;5000949;27;99157;-67
2022/05/05 02:12:36;;;;;;;;;;;;;;;17.50;51.43;100726.97;4989909;27;98987;-67
2022/05/05 02:15:06;;;;;;;;;;;;;;;17.51;51.65;100728.56;5000555;27;97945;-67
2022/05/05 02:17:35;;;;;;;;;;;;;;;17.50;51.47;100728.91;5001286;27;97750;-67
2022/05/05 02:20:02;;;;;;;;;;;;;;;17.50;51.60;100737.88;5000587;27;98541;-68
2022/05/05 02:22:28;;;;;;;;;;;;;;;17.49;51.58;100739.00;4996533;27;120675;-68
2022/05/05 02:24:54;;;;;;;;;;;;;;;17.49;51.71;100741.72;4979473;28;128251;-68
2022/05/05 02:27:20;;;;;;;;;;;;;;;17.48;51.71;100750.19;4989072;27;98291;-68
2022/05/05 02:29:46;;;;;;;;;;;;;;;17.47;51.75;100752.09;5000967;27;112738;-67
2022/05/05 02:32:12;;;;;;;;;;;;;;;17.48;51.83;100758.34;4999065;27;101927;-68
2022/05/05 02:34:38;;;;;;;;;;;;;;;17.47;51.69;100759.47;4980013;27;125078;-68
2022/05/05 02:40:03;;;;;;;;;;;;;;;17.45;51.87;100780.75;4955875;27;98327;-67
2022/05/05 02:42:29;;;;;;;;;;;;;;;17.45;51.93;100780.75;4979770;27;123016;-68
2022/05/05 02:44:55;;;;;;;;;;;;;;;17.43;52.04;100779.16;4981222;27;126810;-68
2022/05/05 02:47:21;;;;;;;;;;;;;;;17.43;52.02;100783.81;4998479;27;118173;-68
2022/05/05 02:49:47;;;;;;;;;;;;;;;17.42;52.39;100782.19;4980215;28;99167;-68
2022/05/05 02:52:13;;;;;;;;;;;;;;;17.40;52.03;100787.13;4980268;27;127292;-67
2022/05/05 02:54:50;;;;;;;;;;;;;;;17.41;52.37;100788.75;4977056;27;126419;-68
2022/05/05 02:57:17;;;;;;;;;;;;;;;17.39;52.38;100789.06;4980881;27;97989;-67
2022/05/05 02:59:44;;;;;;;;;;;;;;;17.39;52.48;100799.16;4982821;27;99369;-67
2022/05/05 03:02:10;;;;;;;;;;;;;;;17.38;52.32;100786.63;5000513;27;98763;-68
2022/05/05 03:04:36;;;;;;;;;;;;;;;17.37;52.56;100791.28;4980885;27;128255;-68
2022/05/05 03:07:01;;;;;;;;;;;;;;;17.37;52.39;100785.84;4984390;27;117955;-68
2022/05/05 03:09:27;;;;;;;;;;;;;;;17.36;52.54;100791.56;4976387;28;122832;-68
2022/05/05 03:11:53;;;;;;;;;;;;;;;17.36;52.69;100794.31;4983280;27;126683;-68
2022/05/05 03:14:19;;;;;;;;;;;;;;;17.36;52.81;100794.31;4979375;28;127508;-67
2022/05/05 03:16:45;;;;;;;;;;;;;;;17.34;52.67;100786.44;4990492;27;98158;-68
2022/05/05 03:19:11;;;;;;;;;;;;;;;17.33;52.84;100784.84;4998806;27;128094;-68
2022/05/05 03:21:37;;;;;;;;;;;;;;;17.34;52.72;100785.63;4999723;27;128699;-67
2022/05/05 03:24:04;;;;;;;;;;;;;;;17.32;52.87;100783.19;4980515;28;128304;-68
2022/05/05 03:26:30;;;;;;;;;;;;;;;17.31;52.71;100787.03;4991063;27;98138;-68
2022/05/05 03:28:56;;;;;;;;;;;;;;;17.32;52.79;100783.19;5002016;27;128179;-69
2022/05/05 03:31:22;;;;;;;;;;;;;;;17.32;52.96;100783.19;5002340;27;125825;-65
2022/05/05 03:33:48;;;;;;;;;;;;;;;17.32;52.98;100785.94;5002869;27;97969;-67
2022/05/05 03:36:14;;;;;;;;;;;;;;;17.32;53.02;100785.13;4995249;27;97900;-67
2022/05/05 03:38:40;;;;;;;;;;;;;;;17.31;52.98;100783.53;4981562;28;129065;-67
2022/05/05 03:41:06;;;;;;;;;;;;;;;17.32;53.08;100787.84;4980602;28;127282;-67
2022/05/05 03:43:32;;;;;;;;;;;;;;;17.31;53.16;100781.59;4982800;28;98598;-67
2022/05/05 03:45:58;;;;;;;;;;;;;;;17.31;53.00;100786.25;4984418;27;98063;-67
2022/05/05 03:48:24;;;;;;;;;;;;;;;17.31;53.11;100788.97;4981346;28;129060;-68
2022/05/05 03:50:50;;;;;;;;;;;;;;;17.31;53.12;100797.94;4982885;28;98552;-67
2022/05/05 03:53:16;;;;;;;;;;;;;;;17.31;53.14;100792.50;5000131;27;126911;-67
2022/05/05 03:55:42;;;;;;;;;;;;;;;17.31;53.19;100797.94;5001704;27;117839;-67
2022/05/05 03:58:08;;;;;;;;;;;;;;;17.33;53.37;100794.91;4982656;27;98053;-67
2022/05/05 04:00:34;;;;;;;;;;;;;;;17.32;53.33;100796.03;4990794;27;127735;-68
2022/05/05 04:05:44;;;;;;;;;;;;;;;17.33;53.34;100806.63;5001484;27;97766;-67
2022/05/05 04:08:10;;;;;;;;;;;;;;;17.34;53.26;100808.25;4980940;28;121990;-68
2022/05/05 04:10:36;;;;;;;;;;;;;;;17.33;53.23;100806.63;4981381;28;128455;-65
2022/05/05 04:13:02;;;;;;;;;;;;;;;17.34;53.46;100807.44;4982460;28;98066;-67
2022/05/05 04:15:30;;;;;;;;;;;;;;;17.34;53.39;100810.97;4982154;27;116337;-67
2022/05/05 04:17:56;;;;;;;;;;;;;;;17.34;53.65;100818.34;4998271;27;98544;-67
2022/05/05 04:20:22;;;;;;;;;;;;;;;17.35;53.52;100820.75;5002492;27;127357;-68
2022/05/05 04:22:49;;;;;;;;;;;;;;;17.36;53.50;100822.34;5002303;27;97903;-67
2022/05/05 04:25:16;;;;;;;;;;;;;;;17.36;53.49;100830.53;5002633;27;97640;-67
2022/05/05 04:27:42;;;;;;;;;;;;;;;17.40;53.64;100841.63;4986241;27;98335;-67
2022/05/05 04:30:08;;;;;;;;;;;;;;;17.41;53.46;100841.34;4980749;27;129212;-67
2022/05/05 04:32:34;;;;;;;;;;;;;;;17.42;53.60;100834.78;4979208;27;123873;-67
2022/05/05 04:35:00;;;;;;;;;;;;;;;17.45;53.51;100836.09;4981448;28;114355;-67
2022/05/05 04:37:26;;;;;;;;;;;;;;;17.49;53.51;100841.72;4982281;27;109945;-67
2022/05/05 04:39:52;;;;;;;;;;;;;;;17.54;53.62;100838.91;4980761;28;127960;-67
2022/05/05 04:42:18;;;;;;;;;;;;;;;17.60;53.57;100843.91;4982091;28;127572;-67
2022/05/05 04:44:44;;;;;;;;;;;;;;;17.66;53.41;100850.88;4982554;27;97769;-67
2022/05/05 04:47:09;;;;;;;;;;;;;;;17.74;53.42;100848.56;4983016;27;128922;-67
2022/05/05 04:49:37;;;;;;;;;;;;;;;17.78;53.42;100846.84;4981060;27;97999;-67
2022/05/05 04:52:04;;;;;;;;;;;;;;;17.82;53.50;100848.66;4998029;27;112173;-68
2022/05/05 04:54:30;;;;;;;;;;;;;;;17.85;53.32;100847.25;5002570;27;98101;-66
2022/05/05 04:56:56;;;;;;;;;;;;;;;17.88;53.36;100852.06;4996641;27;128115;-67
2022/05/05 04:59:22;;;;;;;;;;;;;;;17.95;53.22;100854.38;4992569;27;127942;-67
2022/05/05 05:01:47;;;;;;;;;;;;;;;18.01;53.32;100855.91;5002750;27;98657;-67
2022/05/05 05:04:14;;;;;;;;;;;;;;;18.04;53.24;100858.81;4982581;27;116700;-67
2022/05/05 05:06:40;;;;;;;;;;;;;;;18.10;53.26;100849.38;4982271;27;98990;-67
2022/05/05 05:09:05;;;;;;;;;;;;;;;18.17;53.14;100850.91;4980301;28;127219;-69
2022/05/05 05:11:32;;;;;;;;;;;;;;;18.23;53.16;100857.81;4990855;27;119794;-67
2022/05/05 05:13:57;;;;;;;;;;;;;;;18.30;53.00;100858.22;4981756;27;97847;-67
2022/05/05 05:16:23;;;;;;;;;;;;;;;18.35;53.07;100867.09;4981799;27;121438;-67
2022/05/05 05:18:53;;;;;;;;;;;;;;;18.37;53.07;100864.03;5001032;27;102698;-67
2022/05/05 05:21:19;;;;;;;;;;;;;;;18.36;53.27;100868.69;5001720;27;98002;-67
2022/05/05 05:23:45;;;;;;;;;;;;;;;18.36;53.21;100874.16;4999879;27;117365;-67
2022/05/05 05:26:13;;;;;;;;;;;;;;;18.37;53.47;100877.69;4999701;27;127001;-67
2022/05/05 05:28:39;;;;;;;;;;;;;;;18.37;53.41;100883.94;4981731;28;98309;-67
2022/05/05 05:31:05;;;;;;;;;;;;;;;18.37;53.54;100880.41;4963575;28;98494;-68
2022/05/05 05:33:31;;;;;;;;;;;;;;;18.37;53.54;100891.34;4983196;27;116864;-67
2022/05/05 05:35:57;;;;;;;;;;;;;;;18.38;53.62;100887.47;4981296;27;126791;-67
2022/05/05 05:38:23;;;;;;;;;;;;;;;18.39;53.52;100889.91;4979653;27;117473;-67
2022/05/05 05:40:49;;;;;;;;;;;;;;;18.45;53.41;100890.59;4979187;28;97991;-68
2022/05/05 05:43:15;;;;;;;;;;;;;;;18.54;53.55;100890.66;4978136;28;117740;-67
2022/05/05 05:45:41;;;;;;;;;;;;;;;18.63;53.37;100889.59;4984623;27;100564;-67
2022/05/05 05:48:07;;;;;;;;;;;;;;;18.73;53.33;100898.69;4981162;27;127754;-66
2022/05/05 05:50:33;;;;;;;;;;;;;;;18.86;52.98;100893.16;4980196;27;111194;-67
2022/05/05 05:52:59;;;;;;;;;;;;;;;19.04;52.86;100893.22;4980283;28;111331;-67
2022/05/05 05:55:25;;;;;;;;;;;;;;;19.24;52.54;100905.53;4979938;28;128551;-67
2022/05/05 05:57:51;;;;;;;;;;;;;;;19.40;52.12;100900.47;4994096;27;98143;-67
2022/05/05 06:00:18;;;;;;;;;;;;;;;19.59;52.12;100903.75;5000282;27;98019;-67
2022/05/05 06:05:28;;;;;;;;;;;;;;;19.92;51.48;100908.81;4999360;27;98102;-67
2022/05/05 06:07:59;;;;;;;;;;;;;;;20.04;51.74;100906.25;5000039;27;115456;-66
2022/05/05 06:10:25;;;;;;;;;;;;;;;20.32;51.08;100909.53;5000624;27;98048;-66
2022/05/05 06:12:51;;;;;;;;;;;;;;;20.58;50.85;100918.53;4982852;27;97921;-67
2022/05/05 06:15:17;;;;;;;;;;;;;;;20.66;51.02;100922.41;4980400;28;108216;-67
2022/05/05 06:17:43;;;;;;;;;;;;;;;20.66;51.13;100921.59;4992141;27;125073;-66
2022/05/05 06:20:10;;;;;;;;;;;;;;;20.61;51.26;100921.78;5000560;27;98673;-67
2022/05/05 06:22:37;;;;;;;;;;;;;;;20.65;51.35;100926.28;5001355;27;98285;-66
2022/05/05 06:25:04;;;;;;;;;;;;;;;20.79;51.24;100926.91;4999640;27;98515;-68
2022/05/05 06:27:29;;;;;;;;;;;;;;;20.99;50.94;100932.84;4990579;27;99871;-67
2022/05/05 06:29:55;;;;;;;;;;;;;;;21.22;50.59;100928.75;4979782;28;109582;-67
2022/05/05 06:32:21;;;;;;;;;;;;;;;21.24;50.78;100929.19;4981007;27;97918;-67
2022/05/05 06:34:47;;;;;;;;;;;;;;;21.41;50.61;100935.78;4979344;28;128071;-68
2022/05/05 06:37:13;;;;;;;;;;;;;;;21.71;50.19;100948.38;4987167;27;97936;-67
2022/05/05 06:39:40;;;;;;;;;;;;;;;21.94;50.04;100946.16;5000415;27;98403;-66
2022/05/05 06:42:06;;;;;;;;;;;;;;;21.95;50.32;100949.69;5000341;27;104871;-67
2022/05/05 06:44:32;;;;;;;;;;;;;;;22.06;50.11;100948.97;5000020;27;98380;-67
2022/05/05 06:46:59;;;;;;;;;;;;;;;22.38;49.76;100946.69;4994249;27;98815;-67
2022/05/05 06:49:25;;;;;;;;;;;;;;;22.92;49.16;100943.16;4961729;27;100170;-66
2022/05/05 06:51:51;;;;;;;;;;;;;;;22.78;49.83;100952.44;4980916;27;97849;-66
2022/05/05 06:54:17;;;;;;;;;;;;;;;22.63;50.34;100950.31;4979015;27;127901;-66
2022/05/05 06:56:43;;;;;;;;;;;;;;;22.49;50.70;100953.38;4983920;27;126883;-67
2022/05/05 06:59:09;;;;;;;;;;;;;;;22.35;50.93;100950.09;4982631;27;105190;-67
2022/05/05 07:01:53;;;;;;;;;;;;;;;22.24;51.05;100957.09;4999342;27;117835;-67
2022/05/05 07:07:08;;;;;;;;;;;;;;;21.93;51.45;100971.16;4989089;27;98138;-67
2022/05/05 07:12:19;;;;;;;;;;;;;;;21.68;51.85;100979.22;4981242;28;98451;-67
2022/05/05 07:14:45;;;;;;;;;;;;;;;21.58;51.97;100976.84;4982970;27;98080;-68
2022/05/05 07:17:11;;;;;;;;;;;;;;;21.48;52.06;100980.75;4983883;27;98729;-67
2022/05/05 07:19:38;;;;;;;;;;;;;;;21.46;52.10;100976.75;4983136;28;109966;-67
2022/05/05 07:22:04;;;;;;;;;;;;;;;21.46;52.05;100972.06;4965688;28;98031;-66
2022/05/05 07:24:30;;;;;;;;;;;;;;;21.44;52.09;100979.00;4981970;27;128460;-67
2022/05/05 07:26:56;;;;;;;;;;;;;;;21.36;52.23;100971.59;4988835;27;99484;-66
2022/05/05 07:29:22;;;;;;;;;;;;;;;21.28;52.31;100976.75;5002721;27;125653;-67
2022/05/05 07:31:48;;;;;;;;;;;;;;;21.23;52.44;100981.63;4998459;27;117888;-67
2022/05/05 07:34:15;;;;;;;;;;;;;;;21.18;52.51;100979.03;5003987;27;98532;-67
2022/05/05 07:36:41;;;;;;;;;;;;;;;21.15;52.56;100980.50;5003347;27;98464;-67
2022/05/05 07:39:07;;;;;;;;;;;;;;;21.12;52.70;100981.16;5003024;27;98102;-67
2022/05/05 07:41:33;;;;;;;;;;;;;;;21.11;52.65;100976.81;5001779;27;117287;-67
2022/05/05 07:44:00;;;;;;;;;;;;;;;21.08;52.71;100982.94;5002459;27;128552;-67
2022/05/05 07:46:26;;;;;;;;;;;;;;;21.07;52.55;100982.13;5002734;27;98959;-67
2022/05/05 07:48:52;;;;;;;;;;;;;;;21.06;52.60;100986.00;5000892;27;100176;-67
2022/05/05 07:51:19;;;;;;;;;;;;;;;21.08;52.70;100989.22;5002926;27;98321;-67
2022/05/05 07:54:34;;;;;;;;;;;;;;;21.19;52.53;100994.38;5000224;27;98506;-67
2022/05/05 07:56:30;;;;;;;;;;;;;;;21.40;52.03;100991.75;4991941;27;99140;-66
2022/05/05 07:58:56;;;;;;;;;;;;;;;21.56;51.80;100985.38;4982220;28;127420;-66
2022/05/05 08:01:22;;;;;;;;;;;;;;;21.70;51.71;100987.94;4975640;28;117973;-66
2022/05/05 08:03:48;;;;;;;;;;;;;;;21.80;51.74;100992.22;4982439;27;128109;-67
2022/05/05 08:06:14;;;;;;;;;;;;;;;21.94;51.58;100994.75;4981012;27;129383;-66
2022/05/05 08:08:40;;;;;;;;;;;;;;;22.09;51.35;100993.38;4981321;28;127856;-67
2022/05/05 08:11:06;;;;;;;;;;;;;;;22.21;51.34;100988.00;4981080;27;115544;-67
2022/05/05 08:13:35;;;;;;;;;;;;;;;22.32;51.24;101000.16;4982567;27;128172;-68
2022/05/05 08:16:01;;;;;;;;;;;;;;;22.41;51.13;101006.44;4980643;27;128355;-67
2022/05/05 08:18:27;;;;;;;;;;;;;;;22.49;51.24;101008.31;4982492;27;97795;-68
2022/05/05 08:20:53;;;;;;;;;;;;;;;22.60;51.18;101005.97;4982768;27;117546;-66
2022/05/05 08:23:19;;;;;;;;;;;;;;;22.73;51.14;101020.56;4982092;27;125887;-67
2022/05/05 08:28:30;;;;;;;;;;;;;;;23.07;50.85;101021.41;4980271;28;97992;-66
2022/05/05 08:30:59;;;;;;;;;;;;;;;23.25;50.72;101020.09;4982834;27;98128;-66
2022/05/05 08:33:27;;;;;;;;;;;;;;;23.49;50.66;101019.34;4983172;27;99219;-67
2022/05/05 08:35:54;;;;;;;;;;;;;;;23.77;50.28;101019.50;4983280;27;98811;-67
2022/05/05 08:38:20;;;;;;;;;;;;;;;24.12;50.07;101024.56;4981880;27;98010;-67
2022/05/05 08:40:47;;;;;;;;;;;;;;;24.29;49.99;101029.84;4981490;28;117043;-68
2022/05/05 08:43:13;;;;;;;;;;;;;;;24.32;50.15;101025.56;4982090;28;99046;-68
2022/05/05 08:45:39;;;;;;;;;;;;;;;24.32;50.21;101026.38;4983362;27;99135;-67
2022/05/05 08:48:10;;;;;;;;;;;;;;;24.38;50.56;101024.19;4963823;28;98160;-67
2022/05/05 08:50:37;;;;;;;;;;;;;;;24.46;50.69;101020.53;4980647;28;97995;-68
2022/05/05 08:53:04;;;;;;;;;;;;;;;24.55;50.33;101023.94;4982737;27;124989;-69
2022/05/05 08:55:30;;;;;;;;;;;;;;;24.64;50.74;101015.53;4983241;27;98899;-67
2022/05/05 08:57:56;;;;;;;;;;;;;;;24.76;50.71;101025.72;4979514;28;129011;-67
2022/05/05 09:00:23;;;;;;;;;;;;;;;24.89;50.61;101022.56;4988727;27;97976;-66
2022/05/05 09:02:54;;;;;;;;;;;;;;;25.14;50.09;101026.03;5000574;27;98348;-68
2022/05/05 09:05:42;;;;;;;;;;;;;;;25.44;50.02;101020.13;5001160;27;98525;-66
2022/05/05 09:08:09;;;;;;;;;;;;;;;26.75;47.89;101029.13;4981244;27;98250;-67
2022/05/05 09:10:45;;;;;;;;;;;;;;;27.20;47.47;101033.22;4979297;28;109333;-67
2022/05/05 09:13:11;;;;;;;;;;;;;;;29.44;44.59;101034.84;4981239;28;99010;-67
2022/05/05 09:15:40;;;;;;;;;;;;;;;30.73;43.36;101028.19;4985793;27;118237;-66
2022/05/05 09:18:18;;;;;;;;;;;;;;;31.29;43.28;101035.16;4997729;27;99458;-67
2022/05/05 09:20:45;;;;;;;;;;;;;;;32.50;42.21;101040.69;5000408;27;98187;-66
2022/05/05 09:23:30;;;;;;;;;;;;;;;32.88;42.42;101037.31;5001393;27;98474;-67
2022/05/05 09:25:56;;;;;;;;;;;;;;;32.88;42.48;101038.13;4999858;27;98431;-66
2022/05/05 09:28:28;;;;;;;;;;;;;;;33.78;41.63;101040.34;4999348;27;99217;-68
2022/05/05 09:30:54;;;;;;;;;;;;;;;35.52;38.91;101048.66;5001807;27;97749;-68
2022/05/05 09:33:35;;;;;;;;;;;;;;;37.66;35.73;101049.16;4999878;27;129140;-67
2022/05/05 09:36:08;;;;;;;;;;;;;;;38.95;34.06;101049.22;5001343;27;98441;-68
2022/05/05 09:39:00;;;;;;;;;;;;;;;40.20;32.46;101050.72;4999283;27;98044;-65
2022/05/05 09:41:32;;;;;;;;;;;;;;;40.24;32.68;101042.91;5001453;27;97924;-68
2022/05/05 09:44:02;;;;;;;;;;;;;;;40.42;32.01;101044.28;5000882;27;111204;-67
2022/05/05 09:46:28;;;;;;;;;;;;;;;40.69;31.48;101038.84;5001542;27;99031;-68
2022/05/05 09:49:12;;;;;;;;;;;;;;;41.11;30.40;101031.97;4999357;27;123078;-67
2022/05/05 09:51:40;;;;;;;;;;;;;;;41.08;29.88;101027.28;5002784;27;98313;-66
2022/05/05 09:59:40;;;;;;;;;;;;;;;36.76;32.83;101013.91;4996686;27;98015;-68
2022/05/05 10:02:12;;;;;;;;;;;;;;;36.32;32.53;101018.03;4999670;27;97753;-66
2022/05/05 10:04:39;;;;;;;;;;;;;;;35.28;33.12;101019.00;5000449;27;99435;-66
2022/05/05 10:07:05;;;;;;;;;;;;;;;34.47;32.99;101014.09;4999502;27;98592;-67
2022/05/05 10:09:31;;;;;;;;;;;;;;;35.37;31.75;101016.44;4992955;27;127737;-67
2022/05/05 10:11:57;;;;;;;;;;;;;;;34.01;33.37;101014.59;4985442;27;117102;-67
2022/05/05 10:14:24;;;;;;;;;;;;;;;33.06;33.58;101018.53;4994600;27;127359;-67
2022/05/05 10:16:50;;;;;;;;;;;;;;;32.28;34.14;101016.81;4979801;27;98521;-66
2022/05/05 10:19:16;;;;;;;;;;;;;;;31.70;34.39;101018.06;4961776;28;98477;-66
2022/05/05 10:22:01;;;;;;;;;;;;;;;31.24;34.52;101016.03;4981219;27;116558;-67
2022/05/05 10:24:31;;;;;;;;;;;;;;;31.65;33.66;101021.28;4962831;28;117660;-67
2022/05/05 10:26:59;;;;;;;;;;;;;;;32.24;33.04;101018.81;4979698;28;98120;-66
2022/05/05 10:29:44;;;;;;;;;;;;;;;32.68;32.55;101028.66;4980101;28;106678;-66
2022/05/05 10:32:19;;;;;;;;;;;;;;;32.47;32.67;101024.75;4981877;27;97671;-66
2022/05/05 10:34:47;;;;;;;;;;;;;;;32.46;32.82;101030.72;4979716;27;98016;-66
2022/05/05 10:37:14;;;;;;;;;;;;;;;32.54;32.83;101023.94;4980982;28;98288;-66
2022/05/05 10:39:46;;;;;;;;;;;;;;;32.65;32.85;101027.47;4978527;28;98031;-66
2022/05/05 10:42:14;;;;;;;;;;;;;;;33.28;31.99;101029.53;4981482;27;97988;-67
2022/05/05 10:45:18;;;;;;;;;;;;;;;32.50;32.91;101025.94;4978583;28;98198;-66
2022/05/05 10:47:55;;;;;;;;;;;;;;;32.59;32.67;101025.50;4980829;27;98428;-67
2022/05/05 10:50:30;;;;;;;;;;;;;;;34.19;31.00;101027.19;4980251;28;98190;-66
2022/05/05 10:52:59;;;;;;;;;;;;;;;32.88;32.51;101032.53;4982176;27;97841;-66
2022/05/05 10:55:26;;;;;;;;;;;;;;;32.14;33.23;101028.00;4979625;27;98253;-66
2022/05/05 10:57:53;;;;;;;;;;;;;;;31.73;33.32;101032.00;4978138;28;98530;-67
2022/05/05 11:00:19;;;;;;;;;;;;;;;33.11;31.62;101036.84;4984491;27;98597;-66
2022/05/05 11:03:13;;;;;;;;;;;;;;;32.54;32.55;101037.88;4993611;27;98291;-66
2022/05/05 11:05:39;;;;;;;;;;;;;;;31.86;32.73;101032.41;4980109;27;98895;-66
2022/05/05 11:08:17;;;;;;;;;;;;;;;31.43;32.98;101029.59;4979006;28;128446;-66
2022/05/05 11:13:41;;;;;;;;;;;;;;;30.54;33.66;101032.91;4980272;27;97782;-67
2022/05/05 11:22:23;;;;;;;;;;;;;;;33.71;30.21;101033.59;4975349;28;97887;-66
2022/05/05 11:24:50;;;;;;;;;;;;;;;34.67;29.95;101033.84;4981220;27;97988;-66
2022/05/05 11:27:17;;;;;;;;;;;;;;;35.15;30.03;101030.81;4978182;28;102438;-67
2022/05/05 11:29:50;;;;;;;;;;;;;;;35.97;29.42;101030.69;4979492;27;98254;-67
2022/05/05 11:32:16;;;;;;;;;;;;;;;35.58;29.75;101013.34;4979924;27;98010;-66
2022/05/05 11:34:42;;;;;;;;;;;;;;;34.54;30.18;101016.81;4979450;27;115973;-65
2022/05/05 11:37:08;;;;;;;;;;;;;;;33.75;30.98;101016.81;4979915;28;106705;-66
2022/05/05 11:39:35;;;;;;;;;;;;;;;33.49;30.80;101014.66;4978897;28;98620;-66
2022/05/05 11:42:05;;;;;;;;;;;;;;;33.20;30.44;101012.81;4981978;27;98386;-66
2022/05/05 11:44:33;;;;;;;;;;;;;;;33.59;29.79;101011.75;4984050;27;97854;-66
2022/05/05 11:47:12;;;;;;;;;;;;;;;33.88;29.63;101011.50;4981861;28;99290;-67
2022/05/05 11:49:39;;;;;;;;;;;;;;;34.27;29.40;101011.13;4981796;28;98494;-66
2022/05/05 11:52:05;;;;;;;;;;;;;;;34.62;29.00;101015.50;4982367;27;98152;-66
2022/05/05 11:54:32;;;;;;;;;;;;;;;35.12;28.99;101003.63;4982419;27;97931;-67
2022/05/05 11:56:59;;;;;;;;;;;;;;;34.72;29.77;101008.19;4984197;27;98636;-66
2022/05/05 12:02:24;;;;;;;;;;;;;;;34.66;28.97;100995.88;4979894;27;97729;-66
2022/05/05 12:04:50;;;;;;;;;;;;;;;34.99;28.73;100994.25;4982722;27;97998;-67
2022/05/05 12:07:20;;;;;;;;;;;;;;;35.22;28.68;100981.50;4983935;27;98839;-65
2022/05/05 12:09:47;;;;;;;;;;;;;;;35.42;28.45;100980.34;4980028;28;98418;-65
2022/05/05 12:12:15;;;;;;;;;;;;;;;35.62;28.34;100976.84;4989299;27;104786;-67
2022/05/05 12:14:42;;;;;;;;;;;;;;;35.80;28.40;100980.09;4982771;27;99563;-66
2022/05/05 12:17:12;;;;;;;;;;;;;;;35.97;28.29;100980.22;4983601;27;99050;-65
2022/05/05 12:19:46;;;;;;;;;;;;;;;35.13;28.82;100984.81;4982673;27;98151;-66
2022/05/05 12:22:13;;;;;;;;;;;;;;;34.26;29.56;100984.34;4982354;27;98082;-66
2022/05/05 12:24:44;;;;;;;;;;;;;;;34.74;28.30;100971.38;4982233;27;97954;-65
2022/05/05 12:27:13;;;;;;;;;;;;;;;34.96;28.02;100972.66;4984037;27;99102;-65
2022/05/05 12:29:45;;;;;;;;;;;;;;;35.12;28.04;100974.84;4982519;27;99044;-65
2022/05/05 12:32:18;;;;;;;;;;;;;;;35.38;27.85;100982.41;4982689;27;98063;-66
2022/05/05 12:34:44;;;;;;;;;;;;;;;35.65;27.41;100978.81;4980453;27;99422;-66
2022/05/05 12:37:13;;;;;;;;;;;;;;;35.73;27.75;100971.84;4980165;27;118946;-66
2022/05/05 12:40:01;;;;;;;;;;;;;;;35.91;27.73;100974.28;5001154;27;98946;-66
2022/05/05 12:42:40;;;;;;;;;;;;;;;36.01;27.35;100975.34;5002408;27;98155;-65
2022/05/05 12:45:09;;;;;;;;;;;;;;;36.16;27.53;100975.84;5001610;27;97967;-66
2022/05/05 12:47:41;;;;;;;;;;;;;;;36.21;27.37;100978.94;5002757;27;98273;-66
2022/05/05 12:50:25;;;;;;;;;;;;;;;35.42;28.22;100971.94;4998302;27;98314;-66
2022/05/05 13:01:05;;;;;;;;;;;;;;;33.88;28.38;100967.59;4993603;27;98135;-66
2022/05/05 13:03:31;;;;;;;;;;;;;;;33.38;28.39;100970.81;5002939;27;98258;-66
2022/05/05 13:05:57;;;;;;;;;;;;;;;32.95;28.93;100975.91;5001043;27;118506;-65
2022/05/05 13:08:23;;;;;;;;;;;;;;;32.59;29.03;100980.88;5001794;27;98490;-66
2022/05/05 13:10:49;;;;;;;;;;;;;;;32.42;29.22;100979.75;4983799;27;128343;-65
2022/05/05 13:13:15;;;;;;;;;;;;;;;32.92;28.76;100971.91;4981411;28;116999;-66
2022/05/05 13:15:42;;;;;;;;;;;;;;;32.58;28.82;100973.69;4980372;27;118327;-65
2022/05/05 13:18:08;;;;;;;;;;;;;;;32.06;29.44;100973.47;4980261;28;98955;-66
2022/05/05 13:20:34;;;;;;;;;;;;;;;31.56;29.67;100968.75;4989724;27;98452;-65
2022/05/05 13:23:02;;;;;;;;;;;;;;;31.10;29.99;100966.72;5000217;27;98080;-65
2022/05/05 13:25:28;;;;;;;;;;;;;;;31.03;29.75;100966.69;5002487;27;97738;-65